sensor_id;sensor_type;location;lat;lon;timestamp;P1;durP1;ratioP1;P2;durP2;ratioP2
40867;SDS011;26586;50.708;22.412;2023-04-27T00:00:51;0.40;;;0.28;;
40867;SDS011;26586;50.708;22.412;2023-04-27T00:03:17;0.30;;;0.30;;
40867;SDS011;26586;50.708;22.412;2023-04-27T00:05:43;0.23;;;0.23;;
40867;SDS011;26586;50.708;22.412;2023-04-27T00:08:09;0.00;;;0.00;;
40867;SDS011;26586;50.708;22.412;2023-04-27T00:10:35;0.30;;;0.20;;
40867;SDS011;26586;50.708;22.412;2023-04-27T00:13:01;0.20;;;0.20;;
40867;SDS011;26586;50.708;22.412;2023-04-27T00:15:28;0.10;;;0.10;;
40867;SDS011;26586;50.708;22.412;2023-04-27T00:17:54;0.55;;;0.30;;
40867;SDS011;26586;50.708;22.412;2023-04-27T00:20:22;0.35;;;0.20;;
40867;SDS011;26586;50.708;22.412;2023-04-27T00:22:48;0.93;;;0.83;;
40867;SDS011;26586;50.708;22.412;2023-04-27T00:25:15;1.30;;;0.70;;
40867;SDS011;26586;50.708;22.412;2023-04-27T00:27:41;0.50;;;0.50;;
40867;SDS011;26586;50.708;22.412;2023-04-27T00:30:07;0.00;;;0.00;;
40867;SDS011;26586;50.708;22.412;2023-04-27T00:32:33;0.47;;;0.20;;
40867;SDS011;26586;50.708;22.412;2023-04-27T00:35:00;0.85;;;0.82;;
40867;SDS011;26586;50.708;22.412;2023-04-27T00:37:26;0.75;;;0.65;;
40867;SDS011;26586;50.708;22.412;2023-04-27T00:39:52;0.20;;;0.20;;
40867;SDS011;26586;50.708;22.412;2023-04-27T00:42:18;0.00;;;0.00;;
40867;SDS011;26586;50.708;22.412;2023-04-27T00:44:46;0.25;;;0.25;;
40867;SDS011;26586;50.708;22.412;2023-04-27T00:47:12;0.40;;;0.32;;
40867;SDS011;26586;50.708;22.412;2023-04-27T00:49:40;0.00;;;0.00;;
40867;SDS011;26586;50.708;22.412;2023-04-27T00:52:06;1.02;;;0.20;;
40867;SDS011;26586;50.708;22.412;2023-04-27T00:54:32;0.32;;;0.15;;
40867;SDS011;26586;50.708;22.412;2023-04-27T00:56:59;0.20;;;0.20;;
40867;SDS011;26586;50.708;22.412;2023-04-27T00:59:25;4.50;;;1.80;;
40867;SDS011;26586;50.708;22.412;2023-04-27T01:01:51;0.13;;;0.13;;
40867;SDS011;26586;50.708;22.412;2023-04-27T01:04:18;0.08;;;0.08;;
40867;SDS011;26586;50.708;22.412;2023-04-27T01:06:44;0.20;;;0.20;;
40867;SDS011;26586;50.708;22.412;2023-04-27T01:09:11;0.27;;;0.27;;
40867;SDS011;26586;50.708;22.412;2023-04-27T01:11:37;1.98;;;0.93;;
40867;SDS011;26586;50.708;22.412;2023-04-27T01:14:04;2.30;;;0.45;;
40867;SDS011;26586;50.708;22.412;2023-04-27T01:16:34;0.30;;;0.08;;
40867;SDS011;26586;50.708;22.412;2023-04-27T01:19:00;1.20;;;0.70;;
40867;SDS011;26586;50.708;22.412;2023-04-27T01:21:26;0.40;;;0.32;;
40867;SDS011;26586;50.708;22.412;2023-04-27T01:23:53;1.00;;;0.67;;
40867;SDS011;26586;50.708;22.412;2023-04-27T01:26:19;0.10;;;0.10;;
40867;SDS011;26586;50.708;22.412;2023-04-27T01:28:47;0.10;;;0.10;;
40867;SDS011;26586;50.708;22.412;2023-04-27T01:31:13;0.40;;;0.07;;
40867;SDS011;26586;50.708;22.412;2023-04-27T01:33:40;0.00;;;0.00;;
40867;SDS011;26586;50.708;22.412;2023-04-27T01:36:07;0.10;;;0.03;;
40867;SDS011;26586;50.708;22.412;2023-04-27T01:38:34;0.00;;;0.00;;
40867;SDS011;26586;50.708;22.412;2023-04-27T01:43:30;0.00;;;0.00;;
40867;SDS011;26586;50.708;22.412;2023-04-27T01:48:33;0.22;;;0.22;;
40867;SDS011;26586;50.708;22.412;2023-04-27T01:51:00;0.00;;;0.00;;
40867;SDS011;26586;50.708;22.412;2023-04-27T01:53:27;0.70;;;0.50;;
40867;SDS011;26586;50.708;22.412;2023-04-27T01:55:53;0.13;;;0.13;;
40867;SDS011;26586;50.708;22.412;2023-04-27T01:58:20;0.00;;;0.00;;
40867;SDS011;26586;50.708;22.412;2023-04-27T02:00:46;1.98;;;0.38;;
40867;SDS011;26586;50.708;22.412;2023-04-27T02:03:12;0.20;;;0.20;;
40867;SDS011;26586;50.708;22.412;2023-04-27T02:05:39;0.43;;;0.43;;
40867;SDS011;26586;50.708;22.412;2023-04-27T02:10:32;0.10;;;0.10;;
40867;SDS011;26586;50.708;22.412;2023-04-27T02:13:00;0.32;;;0.32;;
40867;SDS011;26586;50.708;22.412;2023-04-27T02:15:26;2.55;;;1.45;;
40867;SDS011;26586;50.708;22.412;2023-04-27T02:17:52;1.23;;;1.10;;
40867;SDS011;26586;50.708;22.412;2023-04-27T02:20:18;4.80;;;4.03;;
40867;SDS011;26586;50.708;22.412;2023-04-27T02:22:45;9.88;;;4.88;;
40867;SDS011;26586;50.708;22.412;2023-04-27T02:25:11;6.13;;;5.50;;
40867;SDS011;26586;50.708;22.412;2023-04-27T02:27:38;5.43;;;4.40;;
40867;SDS011;26586;50.708;22.412;2023-04-27T02:30:08;6.90;;;5.50;;
40867;SDS011;26586;50.708;22.412;2023-04-27T02:32:36;4.18;;;3.28;;
40867;SDS011;26586;50.708;22.412;2023-04-27T02:35:02;3.20;;;2.90;;
40867;SDS011;26586;50.708;22.412;2023-04-27T02:37:29;4.65;;;2.88;;
40867;SDS011;26586;50.708;22.412;2023-04-27T02:39:55;3.53;;;3.22;;
40867;SDS011;26586;50.708;22.412;2023-04-27T02:42:22;2.17;;;0.95;;
40867;SDS011;26586;50.708;22.412;2023-04-27T02:44:48;3.13;;;1.92;;
40867;SDS011;26586;50.708;22.412;2023-04-27T02:47:14;1.67;;;1.50;;
40867;SDS011;26586;50.708;22.412;2023-04-27T02:49:41;1.42;;;0.82;;
40867;SDS011;26586;50.708;22.412;2023-04-27T02:52:08;1.45;;;1.30;;
40867;SDS011;26586;50.708;22.412;2023-04-27T02:54:34;0.22;;;0.22;;
40867;SDS011;26586;50.708;22.412;2023-04-27T02:57:00;0.10;;;0.10;;
40867;SDS011;26586;50.708;22.412;2023-04-27T02:59:27;0.32;;;0.32;;
40867;SDS011;26586;50.708;22.412;2023-04-27T03:01:53;0.70;;;0.40;;
40867;SDS011;26586;50.708;22.412;2023-04-27T03:04:19;1.58;;;1.48;;
40867;SDS011;26586;50.708;22.412;2023-04-27T03:06:45;3.00;;;0.83;;
40867;SDS011;26586;50.708;22.412;2023-04-27T03:09:12;0.22;;;0.22;;
40867;SDS011;26586;50.708;22.412;2023-04-27T03:11:38;0.60;;;0.60;;
40867;SDS011;26586;50.708;22.412;2023-04-27T03:14:04;1.40;;;0.95;;
40867;SDS011;26586;50.708;22.412;2023-04-27T03:16:31;0.32;;;0.30;;
40867;SDS011;26586;50.708;22.412;2023-04-27T03:18:58;1.45;;;1.23;;
40867;SDS011;26586;50.708;22.412;2023-04-27T03:21:24;2.35;;;1.67;;
40867;SDS011;26586;50.708;22.412;2023-04-27T03:23:51;1.17;;;1.08;;
40867;SDS011;26586;50.708;22.412;2023-04-27T03:26:18;7.45;;;1.23;;
40867;SDS011;26586;50.708;22.412;2023-04-27T03:28:44;0.80;;;0.65;;
40867;SDS011;26586;50.708;22.412;2023-04-27T03:31:11;3.38;;;2.92;;
40867;SDS011;26586;50.708;22.412;2023-04-27T03:33:38;0.45;;;0.45;;
40867;SDS011;26586;50.708;22.412;2023-04-27T03:36:06;1.98;;;1.40;;
40867;SDS011;26586;50.708;22.412;2023-04-27T03:38:34;0.28;;;0.28;;
40867;SDS011;26586;50.708;22.412;2023-04-27T03:41:00;0.75;;;0.47;;
40867;SDS011;26586;50.708;22.412;2023-04-27T03:43:27;2.80;;;1.80;;
40867;SDS011;26586;50.708;22.412;2023-04-27T03:45:53;1.50;;;1.40;;
40867;SDS011;26586;50.708;22.412;2023-04-27T03:48:20;0.45;;;0.45;;
40867;SDS011;26586;50.708;22.412;2023-04-27T03:50:47;1.10;;;1.05;;
40867;SDS011;26586;50.708;22.412;2023-04-27T03:53:13;1.33;;;1.23;;
40867;SDS011;26586;50.708;22.412;2023-04-27T03:55:40;1.73;;;1.63;;
40867;SDS011;26586;50.708;22.412;2023-04-27T03:58:08;2.10;;;1.50;;
40867;SDS011;26586;50.708;22.412;2023-04-27T04:00:37;0.10;;;0.10;;
40867;SDS011;26586;50.708;22.412;2023-04-27T04:03:03;5.82;;;0.82;;
40867;SDS011;26586;50.708;22.412;2023-04-27T04:05:31;0.05;;;0.05;;
40867;SDS011;26586;50.708;22.412;2023-04-27T04:07:57;0.32;;;0.32;;
40867;SDS011;26586;50.708;22.412;2023-04-27T04:10:24;0.10;;;0.10;;
40867;SDS011;26586;50.708;22.412;2023-04-27T04:12:51;0.40;;;0.10;;
40867;SDS011;26586;50.708;22.412;2023-04-27T04:15:17;0.05;;;0.05;;
40867;SDS011;26586;50.708;22.412;2023-04-27T04:17:44;0.30;;;0.30;;
40867;SDS011;26586;50.708;22.412;2023-04-27T04:20:12;0.52;;;0.52;;
40867;SDS011;26586;50.708;22.412;2023-04-27T04:22:38;0.30;;;0.30;;
40867;SDS011;26586;50.708;22.412;2023-04-27T04:25:05;0.43;;;0.43;;
40867;SDS011;26586;50.708;22.412;2023-04-27T04:27:31;0.30;;;0.30;;
40867;SDS011;26586;50.708;22.412;2023-04-27T04:29:58;0.60;;;0.60;;
40867;SDS011;26586;50.708;22.412;2023-04-27T04:32:27;0.10;;;0.05;;
40867;SDS011;26586;50.708;22.412;2023-04-27T04:34:54;0.15;;;0.15;;
40867;SDS011;26586;50.708;22.412;2023-04-27T04:37:20;1.25;;;0.68;;
40867;SDS011;26586;50.708;22.412;2023-04-27T04:42:14;0.60;;;0.45;;
40867;SDS011;26586;50.708;22.412;2023-04-27T04:44:41;0.07;;;0.07;;
40867;SDS011;26586;50.708;22.412;2023-04-27T04:47:07;0.30;;;0.28;;
40867;SDS011;26586;50.708;22.412;2023-04-27T04:49:36;0.50;;;0.40;;
40867;SDS011;26586;50.708;22.412;2023-04-27T04:52:02;0.70;;;0.40;;
40867;SDS011;26586;50.708;22.412;2023-04-27T04:54:29;1.00;;;0.67;;
40867;SDS011;26586;50.708;22.412;2023-04-27T04:56:55;0.25;;;0.10;;
40867;SDS011;26586;50.708;22.412;2023-04-27T04:59:23;0.13;;;0.13;;
40867;SDS011;26586;50.708;22.412;2023-04-27T05:01:49;0.32;;;0.17;;
40867;SDS011;26586;50.708;22.412;2023-04-27T05:04:20;0.20;;;0.20;;
40867;SDS011;26586;50.708;22.412;2023-04-27T05:06:46;0.32;;;0.32;;
40867;SDS011;26586;50.708;22.412;2023-04-27T05:09:13;0.00;;;0.00;;
40867;SDS011;26586;50.708;22.412;2023-04-27T05:11:39;0.30;;;0.25;;
40867;SDS011;26586;50.708;22.412;2023-04-27T05:14:06;0.20;;;0.20;;
40867;SDS011;26586;50.708;22.412;2023-04-27T05:16:32;1.45;;;1.33;;
40867;SDS011;26586;50.708;22.412;2023-04-27T05:18:58;0.37;;;0.30;;
40867;SDS011;26586;50.708;22.412;2023-04-27T05:21:24;0.17;;;0.10;;
40867;SDS011;26586;50.708;22.412;2023-04-27T05:23:50;0.30;;;0.30;;
40867;SDS011;26586;50.708;22.412;2023-04-27T05:26:17;0.65;;;0.60;;
40867;SDS011;26586;50.708;22.412;2023-04-27T05:28:43;0.80;;;0.22;;
40867;SDS011;26586;50.708;22.412;2023-04-27T05:31:11;0.10;;;0.10;;
40867;SDS011;26586;50.708;22.412;2023-04-27T05:33:37;0.30;;;0.30;;
40867;SDS011;26586;50.708;22.412;2023-04-27T05:36:03;0.20;;;0.20;;
40867;SDS011;26586;50.708;22.412;2023-04-27T05:38:30;0.35;;;0.35;;
40867;SDS011;26586;50.708;22.412;2023-04-27T05:43:24;0.00;;;0.00;;
40867;SDS011;26586;50.708;22.412;2023-04-27T05:45:50;2.17;;;0.63;;
40867;SDS011;26586;50.708;22.412;2023-04-27T05:48:17;0.10;;;0.00;;
40867;SDS011;26586;50.708;22.412;2023-04-27T05:50:44;1.23;;;0.53;;
40867;SDS011;26586;50.708;22.412;2023-04-27T05:53:10;0.00;;;0.00;;
40867;SDS011;26586;50.708;22.412;2023-04-27T05:55:36;0.35;;;0.35;;
40867;SDS011;26586;50.708;22.412;2023-04-27T05:58:04;0.10;;;0.10;;
40867;SDS011;26586;50.708;22.412;2023-04-27T06:00:30;0.20;;;0.03;;
40867;SDS011;26586;50.708;22.412;2023-04-27T06:02:56;0.28;;;0.20;;
40867;SDS011;26586;50.708;22.412;2023-04-27T06:05:22;0.25;;;0.25;;
40867;SDS011;26586;50.708;22.412;2023-04-27T06:07:49;4.37;;;0.80;;
40867;SDS011;26586;50.708;22.412;2023-04-27T06:10:15;0.80;;;0.63;;
40867;SDS011;26586;50.708;22.412;2023-04-27T06:12:41;0.03;;;0.03;;
40867;SDS011;26586;50.708;22.412;2023-04-27T06:15:07;0.35;;;0.35;;
40867;SDS011;26586;50.708;22.412;2023-04-27T06:17:35;0.05;;;0.00;;
40867;SDS011;26586;50.708;22.412;2023-04-27T06:20:02;0.00;;;0.00;;
40867;SDS011;26586;50.708;22.412;2023-04-27T06:22:32;0.00;;;0.00;;
40867;SDS011;26586;50.708;22.412;2023-04-27T06:24:58;0.03;;;0.03;;
40867;SDS011;26586;50.708;22.412;2023-04-27T06:27:25;0.13;;;0.13;;
40867;SDS011;26586;50.708;22.412;2023-04-27T06:29:51;0.00;;;0.00;;
40867;SDS011;26586;50.708;22.412;2023-04-27T06:32:17;0.20;;;0.20;;
40867;SDS011;26586;50.708;22.412;2023-04-27T06:34:43;0.43;;;0.30;;
40867;SDS011;26586;50.708;22.412;2023-04-27T06:37:10;0.57;;;0.43;;
40867;SDS011;26586;50.708;22.412;2023-04-27T06:39:36;0.03;;;0.03;;
40867;SDS011;26586;50.708;22.412;2023-04-27T06:42:02;0.20;;;0.20;;
40867;SDS011;26586;50.708;22.412;2023-04-27T06:44:28;0.10;;;0.00;;
40867;SDS011;26586;50.708;22.412;2023-04-27T06:46:55;0.15;;;0.10;;
40867;SDS011;26586;50.708;22.412;2023-04-27T06:49:21;0.15;;;0.08;;
40867;SDS011;26586;50.708;22.412;2023-04-27T06:51:47;0.10;;;0.10;;
40867;SDS011;26586;50.708;22.412;2023-04-27T06:54:14;0.10;;;0.10;;
40867;SDS011;26586;50.708;22.412;2023-04-27T06:56:41;0.00;;;0.00;;
40867;SDS011;26586;50.708;22.412;2023-04-27T06:59:07;0.20;;;0.10;;
40867;SDS011;26586;50.708;22.412;2023-04-27T07:01:34;0.98;;;0.32;;
40867;SDS011;26586;50.708;22.412;2023-04-27T07:04:00;0.00;;;0.00;;
40867;SDS011;26586;50.708;22.412;2023-04-27T07:06:26;0.00;;;0.00;;
40867;SDS011;26586;50.708;22.412;2023-04-27T07:08:53;0.20;;;0.20;;
40867;SDS011;26586;50.708;22.412;2023-04-27T07:11:19;0.00;;;0.00;;
40867;SDS011;26586;50.708;22.412;2023-04-27T07:13:45;0.35;;;0.13;;
40867;SDS011;26586;50.708;22.412;2023-04-27T07:16:12;0.82;;;0.15;;
40867;SDS011;26586;50.708;22.412;2023-04-27T07:18:40;0.30;;;0.20;;
40867;SDS011;26586;50.708;22.412;2023-04-27T07:21:07;0.80;;;0.52;;
40867;SDS011;26586;50.708;22.412;2023-04-27T07:23:34;0.22;;;0.22;;
40867;SDS011;26586;50.708;22.412;2023-04-27T07:26:00;0.00;;;0.00;;
40867;SDS011;26586;50.708;22.412;2023-04-27T07:28:27;0.00;;;0.00;;
40867;SDS011;26586;50.708;22.412;2023-04-27T07:30:54;0.43;;;0.32;;
40867;SDS011;26586;50.708;22.412;2023-04-27T07:33:22;0.03;;;0.00;;
40867;SDS011;26586;50.708;22.412;2023-04-27T07:35:48;0.00;;;0.00;;
40867;SDS011;26586;50.708;22.412;2023-04-27T07:38:17;0.85;;;0.38;;
40867;SDS011;26586;50.708;22.412;2023-04-27T07:40:44;0.10;;;0.10;;
40867;SDS011;26586;50.708;22.412;2023-04-27T07:43:11;0.00;;;0.00;;
40867;SDS011;26586;50.708;22.412;2023-04-27T07:45:39;0.22;;;0.13;;
40867;SDS011;26586;50.708;22.412;2023-04-27T07:48:05;0.00;;;0.00;;
40867;SDS011;26586;50.708;22.412;2023-04-27T07:50:32;0.20;;;0.20;;
40867;SDS011;26586;50.708;22.412;2023-04-27T07:52:58;0.00;;;0.00;;
40867;SDS011;26586;50.708;22.412;2023-04-27T07:55:28;0.00;;;0.00;;
40867;SDS011;26586;50.708;22.412;2023-04-27T07:57:55;0.00;;;0.00;;
40867;SDS011;26586;50.708;22.412;2023-04-27T08:00:22;0.38;;;0.20;;
40867;SDS011;26586;50.708;22.412;2023-04-27T08:02:53;0.00;;;0.00;;
40867;SDS011;26586;50.708;22.412;2023-04-27T08:05:20;0.00;;;0.00;;
40867;SDS011;26586;50.708;22.412;2023-04-27T08:07:47;0.55;;;0.15;;
40867;SDS011;26586;50.708;22.412;2023-04-27T08:10:14;0.00;;;0.00;;
40867;SDS011;26586;50.708;22.412;2023-04-27T08:12:40;0.20;;;0.10;;
40867;SDS011;26586;50.708;22.412;2023-04-27T08:15:07;0.40;;;0.30;;
40867;SDS011;26586;50.708;22.412;2023-04-27T08:17:33;0.98;;;0.25;;
40867;SDS011;26586;50.708;22.412;2023-04-27T08:20:01;0.00;;;0.00;;
40867;SDS011;26586;50.708;22.412;2023-04-27T08:22:27;0.00;;;0.00;;
40867;SDS011;26586;50.708;22.412;2023-04-27T08:24:53;5.45;;;0.25;;
40867;SDS011;26586;50.708;22.412;2023-04-27T08:27:19;0.03;;;0.00;;
40867;SDS011;26586;50.708;22.412;2023-04-27T08:29:46;0.00;;;0.00;;
40867;SDS011;26586;50.708;22.412;2023-04-27T08:32:13;0.25;;;0.08;;
40867;SDS011;26586;50.708;22.412;2023-04-27T08:34:40;0.00;;;0.00;;
40867;SDS011;26586;50.708;22.412;2023-04-27T08:37:09;0.00;;;0.00;;
40867;SDS011;26586;50.708;22.412;2023-04-27T08:39:36;0.00;;;0.00;;
40867;SDS011;26586;50.708;22.412;2023-04-27T08:42:09;0.10;;;0.00;;
40867;SDS011;26586;50.708;22.412;2023-04-27T08:44:40;0.00;;;0.00;;
40867;SDS011;26586;50.708;22.412;2023-04-27T08:47:07;0.28;;;0.20;;
40867;SDS011;26586;50.708;22.412;2023-04-27T08:49:34;0.00;;;0.00;;
40867;SDS011;26586;50.708;22.412;2023-04-27T08:52:09;0.10;;;0.10;;
40867;SDS011;26586;50.708;22.412;2023-04-27T08:54:38;0.00;;;0.00;;
40867;SDS011;26586;50.708;22.412;2023-04-27T08:57:14;0.28;;;0.10;;
40867;SDS011;26586;50.708;22.412;2023-04-27T08:59:41;0.00;;;0.00;;
40867;SDS011;26586;50.708;22.412;2023-04-27T09:02:19;0.30;;;0.15;;
40867;SDS011;26586;50.708;22.412;2023-04-27T09:04:46;0.30;;;0.28;;
40867;SDS011;26586;50.708;22.412;2023-04-27T09:07:16;0.10;;;0.10;;
40867;SDS011;26586;50.708;22.412;2023-04-27T09:09:43;0.00;;;0.00;;
40867;SDS011;26586;50.708;22.412;2023-04-27T09:14:40;2.40;;;0.20;;
40867;SDS011;26586;50.708;22.412;2023-04-27T09:17:07;0.00;;;0.00;;
40867;SDS011;26586;50.708;22.412;2023-04-27T09:19:33;0.00;;;0.00;;
40867;SDS011;26586;50.708;22.412;2023-04-27T09:22:04;0.00;;;0.00;;
40867;SDS011;26586;50.708;22.412;2023-04-27T09:24:35;0.00;;;0.00;;
40867;SDS011;26586;50.708;22.412;2023-04-27T09:27:02;0.00;;;0.00;;
40867;SDS011;26586;50.708;22.412;2023-04-27T09:29:36;0.00;;;0.00;;
40867;SDS011;26586;50.708;22.412;2023-04-27T09:32:15;0.00;;;0.00;;
40867;SDS011;26586;50.708;22.412;2023-04-27T09:34:44;0.00;;;0.00;;
40867;SDS011;26586;50.708;22.412;2023-04-27T09:37:10;1.67;;;0.98;;
40867;SDS011;26586;50.708;22.412;2023-04-27T09:39:37;0.00;;;0.00;;
40867;SDS011;26586;50.708;22.412;2023-04-27T09:42:04;0.15;;;0.10;;
40867;SDS011;26586;50.708;22.412;2023-04-27T09:44:30;0.00;;;0.00;;
40867;SDS011;26586;50.708;22.412;2023-04-27T09:46:57;0.28;;;0.28;;
40867;SDS011;26586;50.708;22.412;2023-04-27T09:49:26;0.10;;;0.10;;
40867;SDS011;26586;50.708;22.412;2023-04-27T09:51:56;0.00;;;0.00;;
40867;SDS011;26586;50.708;22.412;2023-04-27T09:54:24;0.00;;;0.00;;
40867;SDS011;26586;50.708;22.412;2023-04-27T09:56:58;0.00;;;0.00;;
40867;SDS011;26586;50.708;22.412;2023-04-27T09:59:46;0.00;;;0.00;;
40867;SDS011;26586;50.708;22.412;2023-04-27T10:02:26;0.00;;;0.00;;
40867;SDS011;26586;50.708;22.412;2023-04-27T10:08:02;0.00;;;0.00;;
40867;SDS011;26586;50.708;22.412;2023-04-27T10:10:29;0.00;;;0.00;;
40867;SDS011;26586;50.708;22.412;2023-04-27T10:13:07;0.47;;;0.40;;
40867;SDS011;26586;50.708;22.412;2023-04-27T10:15:45;0.00;;;0.00;;
40867;SDS011;26586;50.708;22.412;2023-04-27T10:18:11;0.00;;;0.00;;
40867;SDS011;26586;50.708;22.412;2023-04-27T10:20:38;0.03;;;0.03;;
40867;SDS011;26586;50.708;22.412;2023-04-27T10:25:39;0.00;;;0.00;;
40867;SDS011;26586;50.708;22.412;2023-04-27T10:28:06;0.30;;;0.30;;
40867;SDS011;26586;50.708;22.412;2023-04-27T10:30:36;0.10;;;0.10;;
40867;SDS011;26586;50.708;22.412;2023-04-27T10:33:10;0.00;;;0.00;;
40867;SDS011;26586;50.708;22.412;2023-04-27T10:35:41;0.20;;;0.10;;
40867;SDS011;26586;50.708;22.412;2023-04-27T10:38:16;0.00;;;0.00;;
40867;SDS011;26586;50.708;22.412;2023-04-27T10:40:53;0.00;;;0.00;;
40867;SDS011;26586;50.708;22.412;2023-04-27T10:43:27;0.10;;;0.03;;
40867;SDS011;26586;50.708;22.412;2023-04-27T10:48:37;0.00;;;0.00;;
40867;SDS011;26586;50.708;22.412;2023-04-27T10:51:04;0.10;;;0.00;;
40867;SDS011;26586;50.708;22.412;2023-04-27T10:53:34;0.00;;;0.00;;
40867;SDS011;26586;50.708;22.412;2023-04-27T10:56:01;0.00;;;0.00;;
40867;SDS011;26586;50.708;22.412;2023-04-27T10:58:34;0.10;;;0.10;;
40867;SDS011;26586;50.708;22.412;2023-04-27T11:01:02;0.00;;;0.00;;
40867;SDS011;26586;50.708;22.412;2023-04-27T11:03:28;0.03;;;0.00;;
40867;SDS011;26586;50.708;22.412;2023-04-27T11:08:42;0.00;;;0.00;;
40867;SDS011;26586;50.708;22.412;2023-04-27T11:11:13;0.70;;;0.65;;
40867;SDS011;26586;50.708;22.412;2023-04-27T11:13:46;0.00;;;0.00;;
40867;SDS011;26586;50.708;22.412;2023-04-27T11:16:14;0.10;;;0.10;;
40867;SDS011;26586;50.708;22.412;2023-04-27T11:18:41;0.00;;;0.00;;
40867;SDS011;26586;50.708;22.412;2023-04-27T11:21:15;0.20;;;0.10;;
40867;SDS011;26586;50.708;22.412;2023-04-27T11:23:43;0.05;;;0.00;;
40867;SDS011;26586;50.708;22.412;2023-04-27T11:26:16;0.00;;;0.00;;
40867;SDS011;26586;50.708;22.412;2023-04-27T11:31:27;0.00;;;0.00;;
40867;SDS011;26586;50.708;22.412;2023-04-27T11:34:03;0.20;;;0.03;;
40867;SDS011;26586;50.708;22.412;2023-04-27T11:37:03;0.00;;;0.00;;
40867;SDS011;26586;50.708;22.412;2023-04-27T11:39:34;0.00;;;0.00;;
40867;SDS011;26586;50.708;22.412;2023-04-27T11:42:18;0.00;;;0.00;;
40867;SDS011;26586;50.708;22.412;2023-04-27T11:44:57;0.47;;;0.10;;
40867;SDS011;26586;50.708;22.412;2023-04-27T11:47:29;0.00;;;0.00;;
40867;SDS011;26586;50.708;22.412;2023-04-27T11:50:00;0.38;;;0.30;;
40867;SDS011;26586;50.708;22.412;2023-04-27T11:52:33;0.00;;;0.00;;
40867;SDS011;26586;50.708;22.412;2023-04-27T11:55:01;0.00;;;0.00;;
40867;SDS011;26586;50.708;22.412;2023-04-27T11:57:29;0.00;;;0.00;;
40867;SDS011;26586;50.708;22.412;2023-04-27T11:59:57;0.30;;;0.30;;
40867;SDS011;26586;50.708;22.412;2023-04-27T12:02:25;0.00;;;0.00;;
40867;SDS011;26586;50.708;22.412;2023-04-27T12:04:52;0.40;;;0.20;;
40867;SDS011;26586;50.708;22.412;2023-04-27T12:07:19;0.00;;;0.00;;
40867;SDS011;26586;50.708;22.412;2023-04-27T12:09:45;0.13;;;0.13;;
40867;SDS011;26586;50.708;22.412;2023-04-27T12:12:12;0.00;;;0.00;;
40867;SDS011;26586;50.708;22.412;2023-04-27T12:14:49;0.80;;;0.40;;
40867;SDS011;26586;50.708;22.412;2023-04-27T12:17:16;0.00;;;0.00;;
40867;SDS011;26586;50.708;22.412;2023-04-27T12:19:43;0.00;;;0.00;;
40867;SDS011;26586;50.708;22.412;2023-04-27T12:22:13;0.28;;;0.20;;
40867;SDS011;26586;50.708;22.412;2023-04-27T12:27:07;0.00;;;0.00;;
40867;SDS011;26586;50.708;22.412;2023-04-27T12:29:36;0.10;;;0.10;;
40867;SDS011;26586;50.708;22.412;2023-04-27T12:32:04;1.10;;;1.00;;
40867;SDS011;26586;50.708;22.412;2023-04-27T12:34:31;0.08;;;0.08;;
40867;SDS011;26586;50.708;22.412;2023-04-27T12:37:00;0.10;;;0.10;;
40867;SDS011;26586;50.708;22.412;2023-04-27T12:39:28;0.00;;;0.00;;
40867;SDS011;26586;50.708;22.412;2023-04-27T12:41:56;0.38;;;0.17;;
40867;SDS011;26586;50.708;22.412;2023-04-27T12:44:22;0.50;;;0.40;;
40867;SDS011;26586;50.708;22.412;2023-04-27T12:46:49;0.00;;;0.00;;
40867;SDS011;26586;50.708;22.412;2023-04-27T12:49:15;0.00;;;0.00;;
40867;SDS011;26586;50.708;22.412;2023-04-27T12:51:42;0.70;;;0.55;;
40867;SDS011;26586;50.708;22.412;2023-04-27T12:54:11;0.28;;;0.17;;
40867;SDS011;26586;50.708;22.412;2023-04-27T12:56:37;0.00;;;0.00;;
40867;SDS011;26586;50.708;22.412;2023-04-27T12:59:04;0.00;;;0.00;;
40867;SDS011;26586;50.708;22.412;2023-04-27T13:01:30;0.00;;;0.00;;
40867;SDS011;26586;50.708;22.412;2023-04-27T13:04:01;0.10;;;0.10;;
40867;SDS011;26586;50.708;22.412;2023-04-27T13:06:29;0.00;;;0.00;;
40867;SDS011;26586;50.708;22.412;2023-04-27T13:08:56;0.80;;;0.45;;
40867;SDS011;26586;50.708;22.412;2023-04-27T13:11:24;0.00;;;0.00;;
40867;SDS011;26586;50.708;22.412;2023-04-27T13:13:54;0.00;;;0.00;;
40867;SDS011;26586;50.708;22.412;2023-04-27T13:16:21;0.10;;;0.00;;
40867;SDS011;26586;50.708;22.412;2023-04-27T13:18:52;0.47;;;0.47;;
40867;SDS011;26586;50.708;22.412;2023-04-27T13:21:21;0.38;;;0.25;;
40867;SDS011;26586;50.708;22.412;2023-04-27T13:23:54;0.00;;;0.00;;
40867;SDS011;26586;50.708;22.412;2023-04-27T13:26:21;0.00;;;0.00;;
40867;SDS011;26586;50.708;22.412;2023-04-27T13:28:48;0.00;;;0.00;;
40867;SDS011;26586;50.708;22.412;2023-04-27T13:31:14;0.00;;;0.00;;
40867;SDS011;26586;50.708;22.412;2023-04-27T13:33:41;1.08;;;0.52;;
40867;SDS011;26586;50.708;22.412;2023-04-27T13:36:10;0.00;;;0.00;;
40867;SDS011;26586;50.708;22.412;2023-04-27T13:38:37;0.10;;;0.10;;
40867;SDS011;26586;50.708;22.412;2023-04-27T13:41:04;0.00;;;0.00;;
40867;SDS011;26586;50.708;22.412;2023-04-27T13:43:31;0.43;;;0.28;;
40867;SDS011;26586;50.708;22.412;2023-04-27T13:45:58;0.00;;;0.00;;
40867;SDS011;26586;50.708;22.412;2023-04-27T13:48:25;0.00;;;0.00;;
40867;SDS011;26586;50.708;22.412;2023-04-27T13:50:53;0.00;;;0.00;;
40867;SDS011;26586;50.708;22.412;2023-04-27T13:53:22;0.10;;;0.03;;
40867;SDS011;26586;50.708;22.412;2023-04-27T13:55:53;0.05;;;0.05;;
40867;SDS011;26586;50.708;22.412;2023-04-27T13:58:33;0.10;;;0.00;;
40867;SDS011;26586;50.708;22.412;2023-04-27T14:01:01;0.20;;;0.20;;
40867;SDS011;26586;50.708;22.412;2023-04-27T14:03:27;1.45;;;0.35;;
40867;SDS011;26586;50.708;22.412;2023-04-27T14:05:56;0.00;;;0.00;;
40867;SDS011;26586;50.708;22.412;2023-04-27T14:08:23;0.30;;;0.25;;
40867;SDS011;26586;50.708;22.412;2023-04-27T14:10:50;0.00;;;0.00;;
40867;SDS011;26586;50.708;22.412;2023-04-27T14:13:19;0.00;;;0.00;;
40867;SDS011;26586;50.708;22.412;2023-04-27T14:15:48;0.00;;;0.00;;
40867;SDS011;26586;50.708;22.412;2023-04-27T14:18:15;0.10;;;0.10;;
40867;SDS011;26586;50.708;22.412;2023-04-27T14:20:41;0.20;;;0.10;;
40867;SDS011;26586;50.708;22.412;2023-04-27T14:23:09;0.00;;;0.00;;
40867;SDS011;26586;50.708;22.412;2023-04-27T14:28:09;0.30;;;0.30;;
40867;SDS011;26586;50.708;22.412;2023-04-27T14:30:49;0.00;;;0.00;;
40867;SDS011;26586;50.708;22.412;2023-04-27T14:33:18;0.00;;;0.00;;
40867;SDS011;26586;50.708;22.412;2023-04-27T14:35:50;0.00;;;0.00;;
40867;SDS011;26586;50.708;22.412;2023-04-27T14:38:20;0.00;;;0.00;;
40867;SDS011;26586;50.708;22.412;2023-04-27T14:40:47;0.00;;;0.00;;
40867;SDS011;26586;50.708;22.412;2023-04-27T14:43:13;0.28;;;0.22;;
40867;SDS011;26586;50.708;22.412;2023-04-27T14:45:39;0.20;;;0.17;;
40867;SDS011;26586;50.708;22.412;2023-04-27T14:48:06;1.15;;;0.50;;
40867;SDS011;26586;50.708;22.412;2023-04-27T14:50:33;0.00;;;0.00;;
40867;SDS011;26586;50.708;22.412;2023-04-27T14:53:03;0.52;;;0.40;;
40867;SDS011;26586;50.708;22.412;2023-04-27T14:55:31;0.55;;;0.47;;
40867;SDS011;26586;50.708;22.412;2023-04-27T14:57:58;0.15;;;0.15;;
40867;SDS011;26586;50.708;22.412;2023-04-27T15:00:25;0.00;;;0.00;;
40867;SDS011;26586;50.708;22.412;2023-04-27T15:02:51;0.10;;;0.10;;
40867;SDS011;26586;50.708;22.412;2023-04-27T15:07:44;0.00;;;0.00;;
40867;SDS011;26586;50.708;22.412;2023-04-27T15:10:10;0.10;;;0.10;;
40867;SDS011;26586;50.708;22.412;2023-04-27T15:12:37;0.30;;;0.30;;